Time;durP1;ratioP1;P1;durP2;ratioP2;P2;SDS_P1;SDS_P2;PMS_P1;PMS_P2;Temp;Humidity;BMP_temperature;BMP_pressure;BME280_temperature;BME280_humidity;BME280_pressure;Samples;Min_cycle;Max_cycle;Signal;HPM_P1;HPM_P2
2023/10/23 00:02:05;;;;;;;2.75;1.80;;;19.00;79.20;;;;;;4974885;28;20109;-27
2023/10/23 00:04:33;;;;;;;3.63;1.70;;;20.40;66.40;;;;;;4975012;28;20109;-26
2023/10/23 00:07:00;;;;;;;2.53;1.60;;;19.50;63.50;;;;;;4974867;28;20125;-27
2023/10/23 00:09:26;;;;;;;2.60;1.70;;;19.20;79.60;;;;;;4974774;28;20055;-26
2023/10/23 00:11:53;;;;;;;1.63;1.40;;;20.20;80.10;;;;;;4974580;28;20046;-26
2023/10/23 00:14:21;;;;;;;2.55;1.65;;;19.60;63.90;;;;;;4974859;28;20093;-26
2023/10/23 00:16:48;;;;;;;3.08;1.90;;;19.50;64.50;;;;;;4974486;28;20090;-26
2023/10/23 00:19:15;;;;;;;1.77;1.40;;;;;;;;;;4974868;28;20050;-27
2023/10/23 00:21:44;;;;;;;2.53;1.75;;;;;;;;;;4974531;28;20053;-28
2023/10/23 00:24:11;;;;;;;3.70;1.77;;;19.50;79.60;;;;;;4974760;28;20058;-27
2023/10/23 00:26:38;;;;;;;2.65;1.52;;;19.60;79.60;;;;;;4974543;28;20047;-27
2023/10/23 00:29:04;;;;;;;1.60;1.27;;;19.50;66.10;;;;;;4974676;28;20488;-27
2023/10/23 00:31:32;;;;;;;2.03;1.70;;;19.70;80.10;;;;;;4974290;28;20047;-27
2023/10/23 00:33:59;;;;;;;1.80;1.52;;;19.90;79.80;;;;;;4974509;28;20077;-29
2023/10/23 00:36:26;;;;;;;1.75;1.42;;;;;;;;;;4972502;28;20101;-29
2023/10/23 00:38:53;;;;;;;2.10;1.50;;;19.40;79.60;;;;;;4974491;28;20109;-29
2023/10/23 00:41:20;;;;;;;2.22;1.55;;;19.40;71.60;;;;;;4974206;28;20109;-29
2023/10/23 00:43:47;;;;;;;2.08;1.67;;;;;;;;;;4974266;28;20106;-28
2023/10/23 00:46:15;;;;;;;2.25;1.70;;;20.50;80.20;;;;;;4973142;28;20491;-29
2023/10/23 00:48:43;;;;;;;3.33;1.88;;;19.40;75.50;;;;;;4973526;28;20078;-29
2023/10/23 00:51:11;;;;;;;2.72;1.50;;;20.60;80.60;;;;;;4974301;28;20057;-29
2023/10/23 00:53:39;;;;;;;3.00;1.63;;;19.30;79.90;;;;;;4974055;28;20061;-29
2023/10/23 00:56:06;;;;;;;1.65;1.40;;;19.20;80.10;;;;;;4974220;28;20074;-29
2023/10/23 00:58:33;;;;;;;2.05;1.52;;;;;;;;;;4974036;28;20051;-28
2023/10/23 01:01:00;;;;;;;1.67;1.27;;;19.30;79.90;;;;;;4973721;28;20057;-29
2023/10/23 01:03:27;;;;;;;2.17;1.48;;;;;;;;;;4973891;28;20046;-29
2023/10/23 01:05:55;;;;;;;2.22;1.40;;;19.30;79.90;;;;;;4973806;28;20530;-29
2023/10/23 01:08:22;;;;;;;1.92;1.40;;;19.40;80.30;;;;;;4974163;28;20118;-29
2023/10/23 01:10:49;;;;;;;2.03;1.60;;;19.10;80.10;;;;;;4973542;28;20117;-29
2023/10/23 01:13:16;;;;;;;1.80;1.40;;;;;;;;;;4973702;28;20085;-29
2023/10/23 01:15:43;;;;;;;1.73;1.60;;;18.30;79.90;;;;;;4973687;28;20051;-29
2023/10/23 01:18:10;;;;;;;2.22;1.40;;;;;;;;;;4973419;28;20047;-28
2023/10/23 01:20:37;;;;;;;2.17;1.50;;;19.10;80.40;;;;;;4973289;28;20105;-29
2023/10/23 01:23:05;;;;;;;2.40;1.42;;;19.10;80.40;;;;;;4973467;28;20105;-29
2023/10/23 01:25:33;;;;;;;1.80;1.45;;;19.40;80.40;;;;;;4973550;28;20047;-29
2023/10/23 01:28:00;;;;;;;2.08;1.55;;;19.30;65.60;;;;;;4973278;28;20109;-29
2023/10/23 01:30:28;;;;;;;2.97;1.48;;;19.00;76.10;;;;;;4973022;28;20058;-29
2023/10/23 01:32:55;;;;;;;1.95;1.50;;;19.20;65.20;;;;;;4978590;28;20042;-29
2023/10/23 01:35:21;;;;;;;2.15;1.40;;;19.00;80.20;;;;;;4992856;28;20050;-29
2023/10/23 01:37:49;;;;;;;1.70;1.40;;;;;;;;;;4976578;28;20535;-29
2023/10/23 01:40:15;;;;;;;2.22;1.50;;;18.20;79.60;;;;;;4973392;28;20109;-29
2023/10/23 01:42:44;;;;;;;1.67;1.40;;;19.10;62.00;;;;;;4972984;28;20113;-29
2023/10/23 01:45:11;;;;;;;2.80;1.80;;;18.60;64.80;;;;;;4973330;28;20055;-29
2023/10/23 01:47:38;;;;;;;2.92;1.48;;;19.10;80.20;;;;;;4973498;28;20086;-29
2023/10/23 01:50:05;;;;;;;3.20;1.40;;;19.10;62.00;;;;;;4973418;28;20059;-28
2023/10/23 01:52:32;;;;;;;1.85;1.30;;;19.00;80.50;;;;;;4973061;28;20050;-29
2023/10/23 01:54:59;;;;;;;1.52;1.40;;;18.90;70.00;;;;;;4973074;28;20110;-29
2023/10/23 01:57:26;;;;;;;1.63;1.40;;;19.10;80.10;;;;;;4972911;28;20050;-29
2023/10/23 01:59:54;;;;;;;2.45;1.50;;;19.10;80.50;;;;;;4972884;28;20082;-29
2023/10/23 02:02:21;;;;;;;2.00;1.60;;;;;;;;;;4972796;28;20051;-27
2023/10/23 02:04:48;;;;;;;2.08;1.30;;;18.70;80.60;;;;;;4973040;28;20086;-29
2023/10/23 02:07:15;;;;;;;1.60;1.30;;;;;;;;;;4972989;28;20062;-29
2023/10/23 02:09:42;;;;;;;2.08;1.60;;;19.30;78.00;;;;;;4973035;28;20101;-29
2023/10/23 02:12:09;;;;;;;2.63;1.65;;;19.00;80.80;;;;;;4973081;28;20082;-29
2023/10/23 02:14:36;;;;;;;2.03;1.40;;;;;;;;;;4972738;28;20460;-29
2023/10/23 02:17:04;;;;;;;1.60;1.38;;;18.00;79.80;;;;;;4972972;28;20051;-29
2023/10/23 02:19:31;;;;;;;1.25;1.15;;;18.10;80.30;;;;;;4973024;28;20101;-29
2023/10/23 02:21:58;;;;;;;4.82;1.70;;;;;;;;;;4972821;28;20051;-28
2023/10/23 02:24:25;;;;;;;2.83;1.73;;;19.10;80.90;;;;;;4971372;28;20547;-29
2023/10/23 02:26:52;;;;;;;2.08;1.50;;;19.00;62.20;;;;;;4972831;28;20603;-29
2023/10/23 02:29:19;;;;;;;2.50;1.40;;;19.00;80.80;;;;;;4972995;28;20106;-29
2023/10/23 02:31:45;;;;;;;2.08;1.50;;;18.30;80.00;;;;;;4972553;28;20125;-29
2023/10/23 02:34:13;;;;;;;3.78;1.60;;;18.10;68.50;;;;;;4972732;28;20102;-29
2023/10/23 02:36:40;;;;;;;2.25;1.40;;;18.90;69.50;;;;;;4972296;28;20058;-26
2023/10/23 02:39:07;;;;;;;1.77;1.48;;;18.70;80.70;;;;;;4972833;28;20094;-27
2023/10/23 02:41:34;;;;;;;1.90;1.50;;;18.90;80.40;;;;;;4972195;28;20051;-27
2023/10/23 02:44:00;;;;;;;2.40;1.60;;;18.90;73.80;;;;;;4972879;28;20051;-27
2023/10/23 02:46:27;;;;;;;1.98;1.45;;;18.90;80.90;;;;;;4972781;28;20046;-27
2023/10/23 02:48:54;;;;;;;1.85;1.30;;;18.80;80.40;;;;;;4972802;28;20078;-27
2023/10/23 02:51:22;;;;;;;1.98;1.40;;;18.00;80.90;;;;;;4972193;28;20066;-26
2023/10/23 02:53:49;;;;;;;3.80;1.50;;;18.80;64.70;;;;;;4972595;28;20051;-29
2023/10/23 02:56:16;;;;;;;3.78;1.60;;;;;;;;;;4972343;28;20086;-29
2023/10/23 02:58:43;;;;;;;2.92;1.50;;;18.20;71.10;;;;;;4972465;28;20500;-29
2023/10/23 03:01:16;;;;;;;2.22;1.52;;;19.00;81.10;;;;;;4972067;28;20500;-29
2023/10/23 03:03:43;;;;;;;1.73;1.40;;;20.00;66.80;;;;;;4972584;28;20051;-29
2023/10/23 03:06:10;;;;;;;1.85;1.50;;;18.70;80.90;;;;;;4972623;28;20441;-29
2023/10/23 03:08:40;;;;;;;1.92;1.40;;;18.80;62.00;;;;;;4972295;28;20054;-28
2023/10/23 03:11:07;;;;;;;1.77;1.40;;;18.40;61.80;;;;;;4972385;28;20102;-29
2023/10/23 03:13:34;;;;;;;2.33;1.60;;;18.40;80.60;;;;;;4974738;28;20492;-29
2023/10/23 03:16:02;;;;;;;2.78;1.60;;;;;;;;;;4975876;28;20486;-29
2023/10/23 03:18:30;;;;;;;1.58;1.30;;;;;;;;;;4976187;28;20054;-28
2023/10/23 03:21:00;;;;;;;1.92;1.52;;;18.80;62.00;;;;;;4975680;28;20397;-29
2023/10/23 03:23:27;;;;;;;3.20;1.50;;;;;;;;;;4975708;28;20508;-29
2023/10/23 03:25:56;;;;;;;2.10;1.50;;;19.20;62.20;;;;;;4975828;28;20074;-29
2023/10/23 03:28:23;;;;;;;2.42;1.60;;;;;;;;;;4975436;28;20437;-29
2023/10/23 03:30:50;;;;;;;2.03;1.48;;;;;;;;;;4975655;28;20047;-28
2023/10/23 03:33:17;;;;;;;3.80;1.67;;;19.10;81.60;;;;;;4983631;28;20507;-29
2023/10/23 03:35:44;;;;;;;2.03;1.65;;;;;;;;;;4994960;28;20060;-28
2023/10/23 03:38:12;;;;;;;2.72;1.70;;;18.80;75.60;;;;;;4975739;28;20114;-29
2023/10/23 03:40:39;;;;;;;1.55;1.38;;;18.70;80.50;;;;;;4975453;28;20109;-29
2023/10/23 03:43:07;;;;;;;2.03;1.75;;;18.70;62.10;;;;;;4975318;28;20136;-28
2023/10/23 03:45:36;;;;;;;2.13;1.60;;;18.70;62.10;;;;;;4975353;28;20463;-29
2023/10/23 03:48:03;;;;;;;1.70;1.33;;;;;;;;;;4975397;28;20059;-29
2023/10/23 03:50:30;;;;;;;2.33;1.60;;;20.00;68.80;;;;;;4975167;28;20128;-29
2023/10/23 03:52:57;;;;;;;4.15;1.73;;;18.60;74.30;;;;;;4975438;28;20058;-29
2023/10/23 03:55:23;;;;;;;2.38;1.40;;;18.40;80.50;;;;;;4975003;28;20061;-29
2023/10/23 03:57:50;;;;;;;1.70;1.40;;;18.50;80.60;;;;;;4975191;28;20101;-29
2023/10/23 04:00:18;;;;;;;1.90;1.45;;;19.80;75.50;;;;;;4975064;28;20078;-29
2023/10/23 04:02:45;;;;;;;2.25;1.60;;;18.50;80.50;;;;;;4974911;28;20055;-29
2023/10/23 04:05:12;;;;;;;2.58;1.48;;;18.70;68.60;;;;;;4975090;28;20055;-29
2023/10/23 04:07:39;;;;;;;3.17;1.40;;;;;;;;;;4975204;28;20047;-29
2023/10/23 04:10:08;;;;;;;1.98;1.52;;;17.60;80.50;;;;;;4974961;28;20047;-29
2023/10/23 04:12:34;;;;;;;1.80;1.50;;;18.60;80.60;;;;;;4974679;28;20053;-29
2023/10/23 04:15:01;;;;;;;1.63;1.40;;;;;;;;;;4974905;28;20046;-29
2023/10/23 04:17:30;;;;;;;2.30;1.80;;;18.60;74.40;;;;;;4974751;28;20361;-29
2023/10/23 04:19:57;;;;;;;1.88;1.67;;;;;;;;;;4974664;28;20054;-28
2023/10/23 04:22:24;;;;;;;1.80;1.52;;;18.30;67.10;;;;;;4974686;28;20404;-29
2023/10/23 04:24:53;;;;;;;2.35;1.60;;;19.50;76.70;;;;;;4973514;28;20506;-29
2023/10/23 04:27:20;;;;;;;1.88;1.40;;;;;;;;;;4974469;28;20050;-29
2023/10/23 04:29:47;;;;;;;1.70;1.50;;;;;;;;;;4974634;28;20423;-28
2023/10/23 04:32:14;;;;;;;2.65;1.70;;;18.50;80.70;;;;;;4974721;28;20047;-29
2023/10/23 04:34:42;;;;;;;1.77;1.50;;;18.60;62.20;;;;;;4993817;28;20137;-29
2023/10/23 04:37:09;;;;;;;1.98;1.50;;;18.60;80.70;;;;;;4982797;28;20500;-29
2023/10/23 04:39:36;;;;;;;2.42;1.50;;;;;;;;;;4974457;28;20109;-29
2023/10/23 04:42:03;;;;;;;1.63;1.42;;;18.60;81.30;;;;;;4974108;28;20133;-29
2023/10/23 04:44:30;;;;;;;1.67;1.40;;;;;;;;;;4974192;28;20115;-27
2023/10/23 04:46:57;;;;;;;3.28;1.67;;;18.40;80.70;;;;;;4973078;28;20459;-27
2023/10/23 04:49:24;;;;;;;2.50;1.45;;;;;;;;;;4974358;28;20058;-28
2023/10/23 04:51:53;;;;;;;2.20;1.60;;;17.80;80.70;;;;;;4973951;28;20109;-27
2023/10/23 04:54:19;;;;;;;2.60;1.63;;;17.80;80.70;;;;;;4974124;28;20082;-26
2023/10/23 04:56:46;;;;;;;2.72;1.50;;;;;;;;;;4973792;28;20047;-29
2023/10/23 04:59:14;;;;;;;1.67;1.40;;;;;;;;;;4973981;28;20571;-27
2023/10/23 05:01:41;;;;;;;2.67;1.40;;;;;;;;;;4974019;28;20113;-28
2023/10/23 05:04:07;;;;;;;2.20;1.55;;;17.80;80.90;;;;;;4974048;28;20106;-26
2023/10/23 05:06:34;;;;;;;1.90;1.63;;;;;;;;;;4973948;28;20074;-27
2023/10/23 05:09:04;;;;;;;2.55;1.70;;;19.40;81.20;;;;;;4973795;28;20476;-26
2023/10/23 05:11:31;;;;;;;2.92;1.60;;;;;;;;;;4973534;28;20129;-28
2023/10/23 05:13:58;;;;;;;2.22;1.73;;;;;;;;;;4973757;28;20055;-29
2023/10/23 05:16:25;;;;;;;1.90;1.60;;;18.70;68.90;;;;;;4972388;28;20113;-29
2023/10/23 05:18:52;;;;;;;2.03;1.70;;;18.70;81.20;;;;;;4973647;28;20526;-29
2023/10/23 05:21:18;;;;;;;1.95;1.65;;;18.50;81.00;;;;;;4982427;28;20586;-29
2023/10/23 05:23:45;;;;;;;2.60;1.58;;;18.60;71.40;;;;;;4993057;28;20495;-29
2023/10/23 05:26:14;;;;;;;1.77;1.60;;;18.40;80.60;;;;;;4992918;28;20459;-29
2023/10/23 05:28:41;;;;;;;2.20;1.65;;;;;;;;;;4992983;28;20046;-28
2023/10/23 05:31:09;;;;;;;2.22;1.67;;;17.90;61.80;;;;;;4981102;28;20050;-29
2023/10/23 05:33:35;;;;;;;2.10;1.70;;;18.50;72.80;;;;;;4984014;28;20075;-29
2023/10/23 05:36:04;;;;;;;1.88;1.50;;;19.20;81.00;;;;;;4990382;28;20186;-28
2023/10/23 05:38:30;;;;;;;2.13;1.80;;;19.20;81.10;;;;;;4973148;28;20137;-29
2023/10/23 05:40:58;;;;;;;2.47;1.65;;;;;;;;;;4973231;28;20051;-27
2023/10/23 05:43:26;;;;;;;2.53;2.10;;;18.50;81.00;;;;;;4973323;28;20050;-29
2023/10/23 05:45:54;;;;;;;3.10;1.60;;;18.40;81.00;;;;;;4973439;28;20051;-29
2023/10/23 05:48:20;;;;;;;2.33;1.80;;;18.50;81.10;;;;;;4973119;28;20058;-28
2023/10/23 05:50:57;;;;;;;2.40;1.70;;;19.40;81.20;;;;;;4972686;28;20078;-29
2023/10/23 05:53:23;;;;;;;1.85;1.65;;;18.50;81.10;;;;;;4970118;28;20047;-28
2023/10/23 05:55:50;;;;;;;2.17;1.60;;;;;;;;;;4972378;28;20047;-28
2023/10/23 05:58:17;;;;;;;2.70;1.70;;;18.50;81.10;;;;;;4972698;28;20058;-29
2023/10/23 06:00:45;;;;;;;2.55;1.88;;;21.10;63.50;;;;;;4972645;28;20051;-28
2023/10/23 06:03:12;;;;;;;2.42;1.77;;;;;;;;;;4969591;28;20039;-29
2023/10/23 06:05:42;;;;;;;3.63;1.80;;;18.90;73.50;;;;;;4972161;28;20099;-28
2023/10/23 06:08:09;;;;;;;2.78;1.80;;;18.40;80.50;;;;;;4972490;28;20074;-28
2023/10/23 06:10:43;;;;;;;2.67;1.80;;;18.50;62.20;;;;;;4972606;28;20148;-28
2023/10/23 06:13:11;;;;;;;2.10;1.70;;;;;;;;;;4972218;28;20089;-27
2023/10/23 06:15:38;;;;;;;2.00;1.77;;;18.60;81.40;;;;;;4972456;28;20042;-29
2023/10/23 06:18:06;;;;;;;2.08;1.80;;;18.50;62.20;;;;;;4970000;28;20078;-27
2023/10/23 06:20:33;;;;;;;2.75;1.80;;;;;;;;;;4972861;28;20456;-28
2023/10/23 06:23:00;;;;;;;2.72;1.75;;;18.50;81.10;;;;;;4972918;28;20047;-28
2023/10/23 06:25:29;;;;;;;2.42;1.90;;;;;;;;;;4971522;28;20087;-27
2023/10/23 06:27:55;;;;;;;2.63;2.00;;;18.40;81.10;;;;;;4972758;28;20074;-29
2023/10/23 06:30:22;;;;;;;2.10;1.70;;;18.50;65.60;;;;;;4972849;28;20074;-28
2023/10/23 06:32:49;;;;;;;2.25;1.80;;;;;;;;;;4976771;28;20113;-28
2023/10/23 06:35:17;;;;;;;2.20;1.70;;;18.50;81.00;;;;;;4992268;28;20077;-29
2023/10/23 06:37:45;;;;;;;2.10;1.80;;;;;;;;;;4976546;28;20527;-28
2023/10/23 06:40:12;;;;;;;2.10;1.67;;;19.40;69.30;;;;;;4972666;28;20055;-28
2023/10/23 06:42:39;;;;;;;3.05;2.03;;;18.90;80.80;;;;;;4972302;28;20051;-28
2023/10/23 06:45:06;;;;;;;1.90;1.70;;;18.60;62.00;;;;;;4972334;28;20054;-28
2023/10/23 06:47:33;;;;;;;2.47;2.00;;;18.80;81.10;;;;;;4974159;28;20243;-29
2023/10/23 06:50:02;;;;;;;2.40;1.83;;;19.60;81.00;;;;;;4976337;28;20054;-29
2023/10/23 06:52:30;;;;;;;3.15;1.83;;;18.50;80.50;;;;;;4976382;28;20055;-29
2023/10/23 06:54:57;;;;;;;2.67;1.75;;;19.40;81.20;;;;;;4976276;28;20393;-28
2023/10/23 06:57:24;;;;;;;1.80;1.52;;;;;;;;;;4976226;28;20491;-28
2023/10/23 06:59:54;;;;;;;3.42;1.90;;;18.80;81.20;;;;;;4976263;28;20057;-29
2023/10/23 07:02:20;;;;;;;2.13;1.70;;;18.60;81.20;;;;;;4976099;28;20563;-29
2023/10/23 07:04:48;;;;;;;1.90;1.60;;;18.40;80.70;;;;;;4975510;28;20416;-28
2023/10/23 07:07:15;;;;;;;2.45;1.50;;;;;;;;;;4975900;28;20054;-28
2023/10/23 07:09:43;;;;;;;1.80;1.55;;;18.90;80.90;;;;;;4989023;28;20050;-29
2023/10/23 07:12:09;;;;;;;2.00;1.30;;;19.20;80.20;;;;;;4995341;28;20440;-28
2023/10/23 07:14:36;;;;;;;2.17;1.50;;;19.20;63.40;;;;;;4995771;28;20117;-28
2023/10/23 07:17:03;;;;;;;1.77;1.35;;;20.70;80.90;;;;;;4995628;28;20062;-29
2023/10/23 07:19:30;;;;;;;2.83;1.50;;;19.40;80.20;;;;;;4995562;28;20054;-28
2023/10/23 07:21:57;;;;;;;1.73;1.40;;;19.40;75.40;;;;;;4995402;28;20144;-28
2023/10/23 07:24:23;;;;;;;1.35;1.25;;;19.40;80.40;;;;;;4995054;28;20109;-28
2023/10/23 07:26:52;;;;;;;2.22;1.33;;;20.30;80.30;;;;;;4987831;28;20082;-29
2023/10/23 07:29:18;;;;;;;1.80;1.35;;;19.50;80.00;;;;;;4974701;28;20038;-29
2023/10/23 07:31:45;;;;;;;2.95;1.40;;;20.30;78.40;;;;;;4974531;28;20115;-28
2023/10/23 07:34:12;;;;;;;1.98;1.40;;;19.90;80.00;;;;;;4975554;28;20054;-29
2023/10/23 07:36:40;;;;;;;1.33;1.10;;;;;;;;;;4975057;28;20105;-29
2023/10/23 07:39:07;;;;;;;1.27;1.10;;;20.30;79.60;;;;;;4974703;28;20057;-28
2023/10/23 07:41:34;;;;;;;1.52;1.00;;;19.70;79.10;;;;;;4973882;28;20484;-29
2023/10/23 07:44:02;;;;;;;2.05;1.30;;;20.10;60.60;;;;;;4975658;28;20074;-28
2023/10/23 07:46:29;;;;;;;1.55;1.30;;;;;;;;;;4975345;28;20047;-28
2023/10/23 07:48:56;;;;;;;1.42;1.10;;;20.00;78.90;;;;;;4974829;28;20516;-28
2023/10/23 07:51:23;;;;;;;1.27;1.10;;;20.20;72.30;;;;;;4974349;28;20499;-29
2023/10/23 07:53:50;;;;;;;1.52;1.10;;;20.70;75.60;;;;;;4974546;28;20467;-29
2023/10/23 07:56:16;;;;;;;2.13;1.10;;;20.30;78.90;;;;;;4972496;28;21263;-28
2023/10/23 07:58:44;;;;;;;2.35;1.10;;;;;;;;;;4973945;28;20051;-28
2023/10/23 08:01:13;;;;;;;1.15;0.90;;;21.20;78.90;;;;;;4973953;28;20158;-29
2023/10/23 08:03:40;;;;;;;1.25;1.02;;;;;;;;;;4974536;28;20043;-29
2023/10/23 08:06:08;;;;;;;1.35;1.00;;;21.20;78.90;;;;;;4970791;28;20487;-28
2023/10/23 08:08:36;;;;;;;1.33;1.10;;;20.50;78.80;;;;;;4974042;28;20055;-28
2023/10/23 08:11:03;;;;;;;1.25;1.00;;;20.30;78.20;;;;;;4974581;28;20051;-28
2023/10/23 08:13:30;;;;;;;1.30;1.00;;;;;;;;;;4974498;28;20042;-27
2023/10/23 08:16:00;;;;;;;1.40;1.00;;;;;;;;;;4973678;28;20416;-27
2023/10/23 08:18:28;;;;;;;1.15;1.00;;;20.50;78.30;;;;;;4973924;28;20507;-28
2023/10/23 08:20:55;;;;;;;1.33;1.00;;;19.80;66.30;;;;;;4974384;28;20039;-28
2023/10/23 08:23:22;;;;;;;1.70;1.27;;;;;;;;;;4974594;28;20054;-28
2023/10/23 08:25:49;;;;;;;1.38;1.05;;;20.70;77.80;;;;;;4974858;28;20074;-28
2023/10/23 08:28:16;;;;;;;1.65;1.30;;;;;;;;;;4975341;28;20046;-28
2023/10/23 08:30:43;;;;;;;1.00;0.90;;;19.90;63.70;;;;;;4974760;28;20504;-28
2023/10/23 08:33:09;;;;;;;2.03;1.30;;;21.00;78.10;;;;;;4979802;28;20051;-28
2023/10/23 08:35:38;;;;;;;1.35;1.20;;;22.00;78.30;;;;;;4974220;28;20043;-28
2023/10/23 08:38:04;;;;;;;1.90;1.25;;;20.10;77.30;;;;;;4974080;28;20083;-26
2023/10/23 08:40:31;;;;;;;1.27;1.17;;;20.10;76.50;;;;;;4974670;28;20053;-26
2023/10/23 08:42:58;;;;;;;1.67;1.40;;;22.40;78.70;;;;;;4974194;28;20082;-26
2023/10/23 08:45:25;;;;;;;2.28;1.48;;;;;;;;;;4974140;28;20078;-28
2023/10/23 08:47:52;;;;;;;2.63;1.30;;;;;;;;;;4972713;28;20078;-26
2023/10/23 08:50:19;;;;;;;4.45;1.70;;;;;;;;;;4972458;28;20074;-28
2023/10/23 08:52:50;;;;;;;2.22;1.35;;;21.20;77.50;;;;;;4973048;28;20050;-29
2023/10/23 08:55:18;;;;;;;3.25;1.48;;;;;;;;;;4970792;28;20054;-27
2023/10/23 08:57:48;;;;;;;1.60;1.35;;;21.30;77.40;;;;;;4973056;28;20094;-28
2023/10/23 09:00:15;;;;;;;1.75;1.38;;;21.40;59.20;;;;;;4972875;28;20126;-28
2023/10/23 09:02:42;;;;;;;1.55;1.30;;;20.70;71.00;;;;;;4973564;28;20255;-28
2023/10/23 09:05:09;;;;;;;2.15;1.40;;;21.30;76.80;;;;;;4973621;28;20133;-28
2023/10/23 09:07:36;;;;;;;1.80;1.50;;;21.50;59.10;;;;;;4973860;28;20098;-27
2023/10/23 09:10:05;;;;;;;2.25;1.40;;;21.60;77.20;;;;;;4971621;28;20058;-28
2023/10/23 09:12:32;;;;;;;2.97;1.40;;;;;;;;;;4973387;28;20094;-28
2023/10/23 09:14:59;;;;;;;1.92;1.50;;;21.50;76.50;;;;;;4973340;28;20128;-28
2023/10/23 09:17:27;;;;;;;1.90;1.40;;;21.60;58.90;;;;;;4973239;28;20050;-27
2023/10/23 09:19:54;;;;;;;3.47;1.63;;;;;;;;;;4973407;28;20140;-28
2023/10/23 09:22:21;;;;;;;2.38;1.35;;;;;;;;;;4973496;28;20047;-29
2023/10/23 09:24:48;;;;;;;2.15;1.35;;;21.20;76.30;;;;;;4973219;28;20066;-29
2023/10/23 09:27:17;;;;;;;2.03;1.60;;;20.70;58.20;;;;;;4973351;28;20074;-28
2023/10/23 09:29:44;;;;;;;2.35;1.67;;;21.70;76.20;;;;;;4973125;28;20050;-26
2023/10/23 09:32:10;;;;;;;3.08;1.42;;;21.90;64.10;;;;;;4973135;28;20051;-27
2023/10/23 09:34:41;;;;;;;1.42;1.33;;;21.00;76.20;;;;;;4975147;28;20156;-26
2023/10/23 09:37:08;;;;;;;1.83;1.50;;;;;;;;;;4972883;28;20047;-28
2023/10/23 09:39:37;;;;;;;1.73;1.48;;;;;;;;;;4972983;28;20043;-27
2023/10/23 09:42:07;;;;;;;1.70;1.40;;;22.00;76.00;;;;;;4972893;28;20401;-29
2023/10/23 09:44:36;;;;;;;2.00;1.48;;;22.30;75.90;;;;;;4973106;28;20097;-29
2023/10/23 09:47:03;;;;;;;1.75;1.33;;;21.80;61.10;;;;;;4972839;28;20051;-28
2023/10/23 09:49:30;;;;;;;2.05;1.70;;;22.00;75.80;;;;;;4970732;28;20105;-29
2023/10/23 09:51:57;;;;;;;1.95;1.60;;;23.10;76.60;;;;;;4972734;28;20054;-29
2023/10/23 09:54:23;;;;;;;1.65;1.40;;;21.10;66.10;;;;;;4972393;28;20100;-29
2023/10/23 09:56:51;;;;;;;1.63;1.35;;;21.80;76.30;;;;;;4971984;28;20094;-29
2023/10/23 09:59:19;;;;;;;2.05;1.63;;;22.50;76.20;;;;;;4972831;28;20452;-29
2023/10/23 10:01:48;;;;;;;2.80;1.40;;;20.90;73.20;;;;;;4970425;28;20110;-28
2023/10/23 10:04:18;;;;;;;1.85;1.50;;;22.00;58.40;;;;;;4972220;28;20070;-28
2023/10/23 10:06:47;;;;;;;2.42;1.70;;;21.80;76.00;;;;;;4971900;28;20046;-29
2023/10/23 10:09:14;;;;;;;1.92;1.60;;;21.20;58.00;;;;;;4972650;28;20062;-28
2023/10/23 10:11:42;;;;;;;2.58;1.50;;;21.80;76.50;;;;;;4972202;28;20432;-28
2023/10/23 10:14:10;;;;;;;2.42;1.58;;;22.00;76.10;;;;;;4972416;28;20543;-26
2023/10/23 10:16:37;;;;;;;1.85;1.38;;;22.00;75.80;;;;;;4970021;28;20047;-27
2023/10/23 10:19:05;;;;;;;1.70;1.45;;;21.80;58.40;;;;;;4972884;28;20090;-28
2023/10/23 10:21:32;;;;;;;1.50;1.40;;;;;;;;;;4973841;28;20070;-27
2023/10/23 10:24:00;;;;;;;2.08;1.52;;;22.70;76.70;;;;;;4976621;28;20055;-26
2023/10/23 10:26:27;;;;;;;1.70;1.50;;;21.70;63.50;;;;;;4976889;28;20419;-26
2023/10/23 10:28:53;;;;;;;1.77;1.40;;;21.60;76.20;;;;;;4975584;28;20182;-26
2023/10/23 10:31:22;;;;;;;1.60;1.40;;;21.50;60.30;;;;;;4976867;28;20105;-26
2023/10/23 10:33:51;;;;;;;1.80;1.50;;;21.80;74.60;;;;;;4989046;28;20054;-27
2023/10/23 10:36:19;;;;;;;1.80;1.50;;;21.50;76.00;;;;;;4992351;28;20054;-26
2023/10/23 10:38:46;;;;;;;1.70;1.50;;;21.60;76.50;;;;;;4976863;28;20105;-26
2023/10/23 10:41:17;;;;;;;2.10;1.65;;;21.60;58.70;;;;;;4976365;28;20448;-27
2023/10/23 10:43:45;;;;;;;2.25;1.70;;;21.70;76.60;;;;;;4981858;28;20057;-29
2023/10/23 10:46:15;;;;;;;1.65;1.55;;;22.20;76.40;;;;;;4976837;28;20047;-28
2023/10/23 10:48:42;;;;;;;1.58;1.42;;;;;;;;;;4976604;28;20117;-28
2023/10/23 10:51:09;;;;;;;2.67;1.63;;;22.50;76.80;;;;;;4976098;28;20499;-28
2023/10/23 10:53:41;;;;;;;1.50;1.40;;;21.30;76.20;;;;;;4976249;28;20042;-28
2023/10/23 10:56:09;;;;;;;1.90;1.70;;;20.70;76.20;;;;;;4973988;28;20050;-28
2023/10/23 10:58:37;;;;;;;1.95;1.67;;;21.40;76.50;;;;;;4976441;28;20046;-29
2023/10/23 11:01:03;;;;;;;2.13;1.70;;;21.40;61.60;;;;;;4976463;28;20083;-28
2023/10/23 11:03:30;;;;;;;2.70;1.70;;;21.40;61.70;;;;;;4976149;28;20051;-29
2023/10/23 11:05:57;;;;;;;3.75;1.70;;;22.20;63.70;;;;;;4976212;28;20525;-28
2023/10/23 11:08:24;;;;;;;2.65;1.60;;;20.90;76.80;;;;;;4975688;28;20071;-28
2023/10/23 11:10:52;;;;;;;2.30;2.10;;;22.40;63.90;;;;;;4976379;28;20050;-28
2023/10/23 11:13:19;;;;;;;2.67;2.22;;;20.60;76.70;;;;;;4975847;28;20054;-29
2023/10/23 11:15:46;;;;;;;3.55;1.70;;;21.90;66.00;;;;;;4975431;28;20089;-28
2023/10/23 11:18:14;;;;;;;2.85;2.03;;;;;;;;;;4975676;28;20519;-27
2023/10/23 11:20:40;;;;;;;2.25;1.83;;;21.00;77.10;;;;;;4975443;28;20090;-29
2023/10/23 11:23:07;;;;;;;2.53;2.08;;;21.00;77.30;;;;;;4975530;28;20054;-26
2023/10/23 11:25:34;;;;;;;3.40;2.10;;;20.90;62.00;;;;;;4974661;28;20046;-26
2023/10/23 11:28:05;;;;;;;3.17;2.38;;;20.90;63.40;;;;;;4974709;28;20503;-26
2023/10/23 11:30:32;;;;;;;2.30;1.90;;;21.30;76.50;;;;;;4975434;28;20051;-26
2023/10/23 11:33:03;;;;;;;3.10;1.95;;;21.00;77.90;;;;;;4980886;28;20047;-26
2023/10/23 11:35:33;;;;;;;4.00;1.98;;;21.60;77.90;;;;;;4995495;28;20050;-26
2023/10/23 11:38:00;;;;;;;2.75;2.17;;;20.90;59.60;;;;;;4977282;28;20053;-26
2023/10/23 11:40:27;;;;;;;2.67;2.05;;;20.60;74.30;;;;;;4975560;28;20046;-27
2023/10/23 11:42:54;;;;;;;4.07;2.13;;;20.60;78.00;;;;;;4975459;28;20534;-28
2023/10/23 11:45:22;;;;;;;2.75;2.15;;;19.70;77.10;;;;;;4975633;28;20058;-29
2023/10/23 11:47:51;;;;;;;4.80;2.40;;;20.50;77.90;;;;;;4985664;28;20074;-28
2023/10/23 11:50:17;;;;;;;3.30;2.70;;;21.10;78.20;;;;;;4975646;28;20082;-29
2023/10/23 11:52:45;;;;;;;3.60;2.65;;;;;;;;;;4975166;28;20117;-29
2023/10/23 11:55:12;;;;;;;5.18;2.65;;;20.30;77.90;;;;;;4975534;28;20130;-29
2023/10/23 11:57:41;;;;;;;4.03;2.65;;;20.60;59.80;;;;;;4974834;28;20043;-28
2023/10/23 12:00:11;;;;;;;4.88;2.65;;;20.50;77.70;;;;;;4971378;28;20135;-29
2023/10/23 12:02:41;;;;;;;4.47;3.08;;;20.60;59.90;;;;;;4975017;28;20054;-28
2023/10/23 12:05:10;;;;;;;3.60;3.13;;;20.30;77.50;;;;;;4975462;28;20054;-28
2023/10/23 12:07:39;;;;;;;4.15;2.88;;;20.80;77.10;;;;;;4975320;28;20047;-29
2023/10/23 12:10:07;;;;;;;4.05;2.92;;;19.80;77.70;;;;;;4975139;28;20046;-29
2023/10/23 12:12:34;;;;;;;3.53;3.00;;;;;;;;;;4974825;28;20055;-26
2023/10/23 12:15:03;;;;;;;3.88;3.08;;;20.30;63.40;;;;;;4975327;28;20074;-27
2023/10/23 12:17:30;;;;;;;5.03;3.35;;;19.70;77.80;;;;;;4973367;28;20399;-26
2023/10/23 12:19:58;;;;;;;3.67;3.05;;;20.30;60.00;;;;;;4973784;28;20057;-26
2023/10/23 12:22:25;;;;;;;3.85;2.90;;;20.10;78.00;;;;;;4973723;28;20142;-26
2023/10/23 12:24:52;;;;;;;5.03;3.40;;;20.20;67.00;;;;;;4973804;28;20051;-26
2023/10/23 12:27:18;;;;;;;3.90;2.60;;;20.30;78.20;;;;;;4973978;28;20155;-26
2023/10/23 12:29:45;;;;;;;4.85;3.20;;;;;;;;;;4974141;28;20129;-27
2023/10/23 12:32:14;;;;;;;4.10;3.28;;;20.30;65.60;;;;;;4973765;28;20125;-27
2023/10/23 12:34:41;;;;;;;3.80;3.30;;;19.20;77.70;;;;;;4981110;28;20522;-26
2023/10/23 12:37:09;;;;;;;4.10;3.20;;;20.20;60.10;;;;;;4972227;28;20055;-26
2023/10/23 12:39:36;;;;;;;4.05;3.15;;;;;;;;;;4973237;28;20051;-26
2023/10/23 12:42:03;;;;;;;4.18;3.50;;;21.00;79.10;;;;;;4972613;28;20109;-26
2023/10/23 12:44:30;;;;;;;4.10;3.15;;;;;;;;;;4972559;28;20121;-29
2023/10/23 12:46:57;;;;;;;4.00;3.03;;;20.20;63.60;;;;;;4972989;28;20058;-26
2023/10/23 12:49:24;;;;;;;4.65;3.22;;;21.30;79.00;;;;;;4973334;28;20227;-26
2023/10/23 12:51:51;;;;;;;3.88;3.22;;;20.30;75.90;;;;;;4976115;28;20043;-26
2023/10/23 12:54:19;;;;;;;4.28;3.55;;;19.90;67.80;;;;;;4973205;28;20047;-26
2023/10/23 12:56:46;;;;;;;4.30;3.35;;;19.30;78.50;;;;;;4977683;28;20605;-26
2023/10/23 12:59:13;;;;;;;3.67;3.00;;;20.10;73.80;;;;;;4972794;28;20536;-26
2023/10/23 13:01:40;;;;;;;3.47;3.15;;;19.60;67.50;;;;;;4973669;28;20106;-29
2023/10/23 13:04:06;;;;;;;3.40;3.10;;;20.20;78.80;;;;;;4972791;28;20051;-29
2023/10/23 13:06:33;;;;;;;4.00;2.78;;;19.50;78.30;;;;;;4973114;28;20416;-28
2023/10/23 13:09:00;;;;;;;5.10;3.28;;;19.30;78.40;;;;;;4973073;28;20101;-26
2023/10/23 13:11:30;;;;;;;3.72;2.97;;;20.10;60.50;;;;;;4972533;28;20047;-27